Anna Maersk — OXBA2 — position and weather

sailwx.info

Track history (hours):
 
Tides and Currents Weather Stations Pressure Air Temp Water Temp Dewpoint Dewpoint Depression Visibility Wind Speed Wind Dir Waves Ship Positions

Anna Maersk

Last reported at 2018-Feb-21 01:48 UTC. Time now 2018-Feb-22 19:10 UTC.
Position N 30°37' E 122°03'.

Length 352 m; draft 9.2 m.

Type: Ship (hazmat cat A). MMSI: 220199000.

Date/timePositionNaut miles runAvg speedWind from/ knotsBaromVisibWave heightAir tempDewpointWater temp
2018-Feb-21 01:48N 30°37' E 122°03'3 6.9
2018-Feb-21 01:23N 30°36' E 122°06'42812.7
2018-Feb-19 15:35N 24°05' E 118°49'213.5
2018-Feb-19 15:28N 24°04' E 118°48'613.7
2018-Feb-19 15:00N 23°60' E 118°43'713.5
2018-Feb-19 14:30N 23°55' E 118°37'713.5
2018-Feb-19 14:00N 23°51' E 118°32'713.6
2018-Feb-19 13:30N 23°46' E 118°26'713.4
2018-Feb-19 13:01N 23°42' E 118°20'713.3
2018-Feb-19 12:30N 23°38' E 118°15'612.9
2018-Feb-19 12:01N 23°33' E 118°10'812.4
2018-Feb-19 11:21N 23°28' E 118°03'911.8
2018-Feb-19 10:36N 23°22' E 117°56'3011.6
2018-Feb-19 07:58N 23°06' E 117°27'  
2018-Feb-16 00:38N 22°20' E 114°07'  
Track history (hours):
 
Tides and Currents Weather Stations Pressure Air Temp Water Temp Dewpoint Dewpoint Depression Visibility Wind Speed Wind Dir Waves Ship Positions

Anna Maersk

Last reported at 2018-Feb-21 01:48 UTC. Time now 2018-Feb-22 19:10 UTC.
Position N 30°37' E 122°03'.

Length 352 m; draft 9.2 m.

Type: Ship (hazmat cat A). MMSI: 220199000.

Date/timePositionNaut miles runAvg speedWind from/ knotsBaromVisibWave heightAir tempDewpointWater temp
2018-Feb-21 01:48N 30°37' E 122°03'3 6.9
2018-Feb-21 01:23N 30°36' E 122°06'42812.7
2018-Feb-19 15:35N 24°05' E 118°49'213.5
2018-Feb-19 15:28N 24°04' E 118°48'613.7
2018-Feb-19 15:00N 23°60' E 118°43'713.5
2018-Feb-19 14:30N 23°55' E 118°37'713.5
2018-Feb-19 14:00N 23°51' E 118°32'713.6
2018-Feb-19 13:30N 23°46' E 118°26'713.4
2018-Feb-19 13:01N 23°42' E 118°20'713.3
2018-Feb-19 12:30N 23°38' E 118°15'612.9
2018-Feb-19 12:01N 23°33' E 118°10'812.4
2018-Feb-19 11:21N 23°28' E 118°03'911.8
2018-Feb-19 10:36N 23°22' E 117°56'3011.6
2018-Feb-19 07:58N 23°06' E 117°27'  
2018-Feb-16 00:38N 22°20' E 114°07'  

Dump ship's entire track history